Sample Charts Sidebar
> Live data! Your data is on the web site for you to access within minutes
 
> Detailed data is easily downloaded as data file, which can be opened with Excel
 
> Charts can be customised if necessary
  Chart 1
 

(A maximum of 50 rows are displayed here. Use "Export Data" to see all rows in the date range.)
Date Collected Temperature
(Celcius)
Wind-chill
(Celcius)
Wind Speed
(km/hr)
Gust
(km/hr)
Wind Direction
(degrees)
2019-03-27 16:00 14.2 14.2 0 0 217
2019-03-27 15:00 14.7 13.9 4 10 201
2019-03-27 14:00 15.3 13.9 4 11 201
2019-03-27 13:00 15.1 14.0 4 10 195
2019-03-27 12:00 14.7 14.0 3 11 196
2019-03-27 11:00 14.9 13.4 4 10 227
2019-03-27 10:00 12.4 12.2 2 5 210
2019-03-27 09:00 8.6 8.3 1 3 40
2019-03-27 08:00 6.4 6.2 2 5 39
2019-03-27 07:00 5.2 5.1 2 5 42
2019-03-27 06:00 4.7 4.8 1 4 43
2019-03-27 05:00 5.3 5.3 1 3 48
2019-03-27 04:00 4.8 4.6 2 3 43
2019-03-27 03:00 4.6 4.7 1 3 63
2019-03-27 02:00 5.0 5.0 2 5 35
2019-03-27 01:00 5.3 5.3 2 5 40
2019-03-27 00:00 5.6 5.6 1 2 37
2019-03-26 23:00 6.1 6.2 1 3 59
2019-03-26 22:00 6.3 6.3 1 3 41
2019-03-26 21:00 6.7 6.7 0 1 319
2019-03-26 20:00 7.8 7.9 1 3 47
2019-03-26 19:00 9.5 9.7 0 1 57
2019-03-26 18:00 11.4 11.7 1 3 236
2019-03-26 17:00 13.2 12.9 3 8 213
2019-03-26 16:00 14.2 13.5 4 8 178
2019-03-26 15:00 15.3 13.0 5 13 210
2019-03-26 14:00 14.9 13.8 4 9 222
2019-03-26 13:00 15.2 14.0 4 9 221
2019-03-26 12:00 14.1 13.6 3 8 209
2019-03-26 11:00 14.0 12.9 4 7 225
2019-03-26 10:00 11.2 11.1 1 4 199
2019-03-26 09:00 6.9 6.5 1 2 22
2019-03-26 08:00 2.4 2.3 0 1 1
2019-03-26 07:00 2.3 2.2 1 2 46
2019-03-26 06:00 2.6 2.6 1 3 56
2019-03-26 05:00 3.0 3.1 1 2 6
2019-03-26 04:00 3.3 3.3 1 3 17
2019-03-26 03:00 3.5 3.5 0 2 45
2019-03-26 02:00 3.9 4.0 0 2 24
2019-03-26 01:00 5.0 5.1 0 1 23
2019-03-26 00:00 6.2 6.3 1 1 14
2019-03-25 23:00 6.9 6.9 0 2 286
2019-03-25 22:00 7.0 7.2 0 2 298
2019-03-25 21:00 7.9 7.8 2 4 147
2019-03-25 20:00 8.6 8.7 1 4 146
2019-03-25 19:00 9.6 9.5 2 6 115
2019-03-25 18:00 10.7 10.7 2 6 86
2019-03-25 17:00 12.1 12.1 2 5 89
2019-03-25 16:00 13.0 13.0 2 5 93
2019-03-25 15:00 14.0 13.2 4 10 109